Archival Weather

Murmansk

Murmansk, Russia (ULMM)

Report from: Thursday, April 25, 2024 6:30 PM MSK
Current time: Saturday, June 22, 2024 3:42 AM MSK

Current weather – Weather history – Daily summaries
Weather forecast

Temperature5.0°C (41.0°F)
Dew point-5.0°C (23.0°F)
Winds 1.9 kts (1 m/s, 2.2 mph) South (180°)
Clouds Sky clear
Altimeter30.00 in.Hg (1016 mB)
Precip. events QF 2:35 AM
Relative humidity48 %
Density altitude-1,234 ft. (-376 m)
Remarks Ceiling and visibility OK
No significant changes expected in the next two hours
Flight conditions Visual Meteorological Conditions
Raw dataULMM 251530Z 18001MPS CAVOK 05/M05 Q1016 R13/250051 NOSIG RMK QFE755
An error has occurred. This application may no longer respond until reloaded. Reload 🗙